Aérodrome :







RETROUVEZ-NOUS SUR...

 
LOGIN :

S'inscrire | Disclaimer

   EN    FR    IT 

 









Légende :    VFR   VFR Marginal   IFR   IFR Intensif   IFR Très Intensif
Visi : 
Plafond : 
>= 8 km
>= 3000ft
5 à 8 km
1000 à 3000 ft
1500m à 5 km
500 à 1000 ft
800 à 1500m
200 à 500 ft
< 800m
< 200 ft
Symboles :   Orages  Brouillard  Fortes neiges  Fortes précipitations  Vent > 20 kt






- Altitude de l'aérodrome : 73 ft
- Code IATA : DOM


TDPD - Melville Hall

METARs EXPIRÉS :
  • 162200Z 13006KT 9999 SCT016 SCT038 25/21 Q1015
  • 162100Z 11011KT 9999 SCT016 BKN040 26/22 Q1015

TAF TAF TDPD
Valide du 16 à 18h jusqu'au 17 à 18h UTC


161700Z 1618/1718 11012KT 9999 SCT018
TEMPO 1618/1624 11015G25KT SHRA BKN015
PROB30
TEMPO 1706/1712 SHRA BKN015



MET'MAP, la Météo Aéronautique d'un coup d'oeil ! - Copyright ORBIFLY Décembre 2007 - Disclaimer

ORBIFLY MET'MAP TEAM :

Programmation & Développement : Alexandra Zaïnal
Sur une idée originale de : Baudouin d'Aumeries
Assistance à la programmation : Marc-Olivier Méhu
Soutien technique & logistique : Manuel Goepfert

Contact : metmap@orbifly.com




SOURCES & CREDITS :

   NOAA